createdAt,value
2018-12-25T00:00:10.571Z,0.00
2018-12-25T00:01:10.695Z,0.00
2018-12-25T00:02:10.817Z,0.00
2018-12-25T00:03:10.942Z,0.00
2018-12-25T00:04:11.071Z,0.00
2018-12-25T00:05:11.193Z,0.00
2018-12-25T00:06:11.324Z,0.00
2018-12-25T00:07:11.447Z,0.00
2018-12-25T00:08:11.583Z,0.00
2018-12-25T00:09:11.709Z,0.00
2018-12-25T00:10:11.831Z,0.00
2018-12-25T00:11:11.959Z,0.00
2018-12-25T00:12:12.083Z,0.00
2018-12-25T00:13:12.215Z,0.00
2018-12-25T00:14:12.340Z,0.00
2018-12-25T00:15:12.469Z,0.00
2018-12-25T00:16:12.593Z,0.00
2018-12-25T00:17:12.720Z,0.00
2018-12-25T00:18:12.850Z,0.00
2018-12-25T00:19:12.981Z,0.00
2018-12-25T00:20:13.116Z,0.00
2018-12-25T00:21:13.241Z,0.00
2018-12-25T00:22:13.362Z,0.00
2018-12-25T00:23:13.485Z,0.00
2018-12-25T00:24:13.618Z,0.00
2018-12-25T00:25:13.742Z,0.00
2018-12-25T00:26:13.868Z,0.00
2018-12-25T00:27:13.993Z,0.00
2018-12-25T00:28:14.118Z,0.00
2018-12-25T00:29:14.250Z,0.00
2018-12-25T00:30:14.370Z,0.00
2018-12-25T00:31:14.526Z,0.00
2018-12-25T00:32:14.623Z,0.00
2018-12-25T00:33:14.746Z,0.00
2018-12-25T00:34:14.880Z,0.00
2018-12-25T00:35:15.005Z,0.00
2018-12-25T00:36:15.129Z,0.00
2018-12-25T00:37:15.254Z,0.00
2018-12-25T00:38:15.392Z,0.00
2018-12-25T00:39:15.523Z,0.00
2018-12-25T00:40:15.650Z,0.00
2018-12-25T00:41:15.777Z,0.00
2018-12-25T00:42:15.911Z,0.00
2018-12-25T00:43:16.032Z,0.00
2018-12-25T00:44:16.158Z,0.00
2018-12-25T00:45:18.286Z,0.00
2018-12-25T00:46:16.416Z,0.00
2018-12-25T00:47:16.542Z,0.00
2018-12-25T00:48:16.670Z,0.00
2018-12-25T00:49:16.800Z,0.00
2018-12-25T00:50:16.967Z,0.00
2018-12-25T00:51:17.048Z,0.00
2018-12-25T00:52:17.171Z,0.00
2018-12-25T00:53:17.303Z,0.00
2018-12-25T00:54:17.424Z,0.00
2018-12-25T00:55:17.559Z,0.00
2018-12-25T00:56:17.685Z,0.00
2018-12-25T00:57:17.809Z,0.00
2018-12-25T00:58:17.934Z,0.00
2018-12-25T00:59:18.063Z,0.00
2018-12-25T01:00:18.192Z,0.00
2018-12-25T01:01:18.325Z,0.00
2018-12-25T01:02:18.450Z,0.00
2018-12-25T01:03:18.576Z,0.00
2018-12-25T01:04:18.705Z,0.00
2018-12-25T01:05:18.827Z,0.00
2018-12-25T01:06:18.963Z,0.00
2018-12-25T01:07:19.096Z,0.00
2018-12-25T01:08:19.218Z,0.00
2018-12-25T01:09:19.338Z,0.00
2018-12-25T01:10:19.466Z,0.00
2018-12-25T01:11:19.591Z,0.00
2018-12-25T01:12:19.721Z,0.00
2018-12-25T01:13:19.845Z,0.00
2018-12-25T01:14:19.971Z,0.00
2018-12-25T01:15:20.091Z,0.00
2018-12-25T01:16:20.216Z,0.00
2018-12-25T01:17:20.350Z,0.00
2018-12-25T01:18:20.475Z,0.00
2018-12-25T01:19:23.386Z,0.00
2018-12-25T01:20:20.734Z,0.00
2018-12-25T01:21:20.858Z,0.00
2018-12-25T01:22:20.987Z,0.00
2018-12-25T01:23:21.110Z,0.00
2018-12-25T01:24:21.231Z,0.00
2018-12-25T01:25:21.356Z,0.00
2018-12-25T01:26:21.478Z,0.00
2018-12-25T01:27:21.607Z,0.00
2018-12-25T01:28:21.730Z,0.00
2018-12-25T01:29:21.855Z,0.00
2018-12-25T01:30:21.979Z,0.00
2018-12-25T01:31:22.107Z,0.00
2018-12-25T01:32:22.354Z,0.00
2018-12-25T01:33:22.358Z,0.00
2018-12-25T01:34:22.493Z,0.00
2018-12-25T01:35:22.647Z,0.00
2018-12-25T01:36:22.769Z,0.00
2018-12-25T01:37:22.891Z,0.00
2018-12-25T01:38:23.050Z,0.00
2018-12-25T01:39:23.256Z,0.00
2018-12-25T01:40:23.243Z,0.00
2018-12-25T01:41:23.372Z,0.00
2018-12-25T01:42:23.512Z,0.00
2018-12-25T01:43:23.645Z,0.00
2018-12-25T01:44:23.782Z,0.00
2018-12-25T01:45:23.903Z,0.00
2018-12-25T01:46:24.030Z,0.00
2018-12-25T01:47:24.177Z,0.00
2018-12-25T01:48:24.295Z,0.00
2018-12-25T01:49:31.596Z,0.00
2018-12-25T01:50:24.577Z,0.00
2018-12-25T01:51:24.698Z,0.00
2018-12-25T01:52:24.835Z,0.00
2018-12-25T01:53:24.987Z,0.00
2018-12-25T01:54:25.212Z,0.00
2018-12-25T01:55:25.247Z,0.00
2018-12-25T01:56:25.371Z,0.00
2018-12-25T01:57:25.511Z,0.00
2018-12-25T01:58:25.639Z,0.00
2018-12-25T01:59:25.774Z,0.00
2018-12-25T02:00:25.927Z,0.00
2018-12-25T02:01:26.057Z,0.00
2018-12-25T02:02:26.185Z,0.00
2018-12-25T02:03:26.309Z,0.00
2018-12-25T02:04:26.468Z,0.00
2018-12-25T02:05:26.592Z,0.00
2018-12-25T02:06:26.718Z,0.00
2018-12-25T02:07:26.850Z,0.00
2018-12-25T02:08:27.026Z,0.00
2018-12-25T02:09:27.126Z,0.00
2018-12-25T02:10:27.269Z,0.00
2018-12-25T02:11:27.394Z,0.00
2018-12-25T02:12:27.557Z,0.00
2018-12-25T02:13:27.681Z,0.00
2018-12-25T02:14:27.803Z,0.00
2018-12-25T02:15:27.929Z,0.00
2018-12-25T02:16:28.083Z,0.00
2018-12-25T02:17:28.208Z,0.00
2018-12-25T02:18:28.332Z,0.00
2018-12-25T02:19:28.490Z,0.00
2018-12-25T02:20:28.614Z,0.00
2018-12-25T02:21:28.739Z,0.00
2018-12-25T02:22:28.887Z,0.00
2018-12-25T02:23:29.081Z,0.00
2018-12-25T02:24:29.079Z,0.00
2018-12-25T02:25:29.205Z,0.00
2018-12-25T02:26:29.361Z,0.00
2018-12-25T02:27:29.481Z,0.00
2018-12-25T02:28:29.624Z,0.00
2018-12-25T02:29:29.747Z,0.00
2018-12-25T02:30:29.874Z,0.00
2018-12-25T02:31:30.000Z,0.00
2018-12-25T02:32:30.173Z,0.00
2018-12-25T02:33:30.298Z,0.00
2018-12-25T02:34:30.428Z,0.00
2018-12-25T02:35:30.556Z,0.00
2018-12-25T02:36:30.701Z,0.00
2018-12-25T02:37:30.828Z,0.00
2018-12-25T02:38:30.960Z,0.00
2018-12-25T02:39:31.085Z,0.00
2018-12-25T02:40:31.211Z,0.00
2018-12-25T02:41:31.335Z,0.00
2018-12-25T02:42:31.462Z,0.00
2018-12-25T02:43:31.585Z,0.00
2018-12-25T02:44:31.711Z,0.00
2018-12-25T02:45:31.843Z,0.00
2018-12-25T02:46:31.963Z,0.00
2018-12-25T02:47:32.091Z,0.00
2018-12-25T02:48:32.219Z,0.00
2018-12-25T02:49:32.344Z,0.00
2018-12-25T02:50:32.471Z,0.00
2018-12-25T02:51:32.592Z,0.00
2018-12-25T02:52:32.717Z,0.00
2018-12-25T02:53:32.845Z,0.00
2018-12-25T02:54:32.973Z,0.00
2018-12-25T02:55:33.101Z,0.00
2018-12-25T02:56:33.228Z,0.00
2018-12-25T02:57:33.363Z,0.00
2018-12-25T02:58:33.484Z,0.00
2018-12-25T02:59:33.612Z,0.00
2018-12-25T03:00:33.738Z,0.00
2018-12-25T03:01:33.864Z,0.00
2018-12-25T03:02:34.019Z,0.00
2018-12-25T03:03:34.113Z,0.00
2018-12-25T03:04:34.241Z,0.00
2018-12-25T03:05:34.367Z,0.00
2018-12-25T03:06:34.497Z,0.00
2018-12-25T03:07:34.621Z,0.00
2018-12-25T03:08:34.748Z,0.00
2018-12-25T03:09:34.872Z,0.00
2018-12-25T03:10:34.997Z,0.00
2018-12-25T03:11:35.116Z,0.00
2018-12-25T03:12:35.242Z,0.00
2018-12-25T03:13:35.365Z,0.00
2018-12-25T03:14:35.494Z,0.00
2018-12-25T03:15:35.616Z,0.00
2018-12-25T03:16:35.746Z,0.00
2018-12-25T03:17:35.988Z,0.00
2018-12-25T03:18:35.997Z,0.00
2018-12-25T03:19:36.130Z,0.00
2018-12-25T03:20:36.252Z,0.00
2018-12-25T03:21:36.379Z,0.00
2018-12-25T03:22:36.519Z,0.00
2018-12-25T03:23:36.643Z,0.00
2018-12-25T03:24:36.775Z,0.00
2018-12-25T03:25:36.907Z,0.00
2018-12-25T03:26:37.118Z,0.00
2018-12-25T03:27:37.157Z,0.00
2018-12-25T03:28:37.290Z,0.00
2018-12-25T03:29:37.416Z,0.00
2018-12-25T03:30:37.541Z,0.00
2018-12-25T03:31:37.667Z,0.00
2018-12-25T03:32:37.797Z,0.00
2018-12-25T03:33:37.922Z,0.00
2018-12-25T03:34:38.040Z,0.00
2018-12-25T03:35:38.171Z,0.00
2018-12-25T03:36:38.295Z,0.00
2018-12-25T03:37:38.420Z,0.00
2018-12-25T03:38:38.542Z,0.00
2018-12-25T03:39:38.673Z,0.00
2018-12-25T03:40:38.801Z,0.00
2018-12-25T03:41:38.931Z,0.00
2018-12-25T03:42:39.054Z,0.00
2018-12-25T03:43:39.190Z,0.00
2018-12-25T03:44:39.312Z,0.00
2018-12-25T03:45:39.441Z,0.00
2018-12-25T03:46:39.574Z,0.00
2018-12-25T03:47:39.696Z,0.00
2018-12-25T03:48:39.821Z,0.00
2018-12-25T03:49:39.952Z,0.00
2018-12-25T03:50:40.079Z,0.00
2018-12-25T03:51:40.206Z,0.00
2018-12-25T03:52:40.334Z,0.00
2018-12-25T03:53:40.463Z,0.00
2018-12-25T03:54:40.588Z,0.00
2018-12-25T03:55:40.717Z,0.00
2018-12-25T03:56:40.848Z,0.00
2018-12-25T03:57:40.971Z,0.00
2018-12-25T03:58:41.099Z,0.00
2018-12-25T03:59:41.221Z,0.00
2018-12-25T04:00:41.349Z,0.00
2018-12-25T04:01:41.479Z,0.00
2018-12-25T04:02:41.606Z,0.00
2018-12-25T04:03:41.733Z,0.00
2018-12-25T04:04:41.860Z,0.00
2018-12-25T04:05:41.987Z,0.00
2018-12-25T04:06:42.117Z,0.00
2018-12-25T04:07:42.238Z,0.00
2018-12-25T04:08:42.365Z,0.00
2018-12-25T04:09:42.493Z,0.00
2018-12-25T04:10:42.620Z,0.00
2018-12-25T04:11:42.751Z,0.00
2018-12-25T04:12:42.881Z,0.00
2018-12-25T04:13:43.005Z,0.00
2018-12-25T04:14:43.130Z,0.00
2018-12-25T04:15:43.255Z,0.00
2018-12-25T04:16:43.378Z,0.00
2018-12-25T04:17:43.505Z,0.00
2018-12-25T04:18:43.632Z,0.00
2018-12-25T04:19:43.760Z,0.00
2018-12-25T04:20:43.897Z,0.00
2018-12-25T04:21:44.014Z,0.00
2018-12-25T04:22:44.143Z,0.00
2018-12-25T04:23:44.269Z,0.00
2018-12-25T04:24:44.398Z,0.00
2018-12-25T04:25:44.520Z,0.00
2018-12-25T04:26:44.643Z,0.00
2018-12-25T04:27:44.769Z,0.00
2018-12-25T04:28:44.892Z,0.00
2018-12-25T04:29:45.022Z,0.00
2018-12-25T04:30:45.146Z,0.00
2018-12-25T04:31:45.281Z,0.00
2018-12-25T04:32:45.407Z,0.00
2018-12-25T04:33:45.528Z,0.00
2018-12-25T04:34:45.805Z,0.00
2018-12-25T04:35:45.778Z,0.00
2018-12-25T04:36:45.903Z,0.00
2018-12-25T04:37:46.030Z,0.00
2018-12-25T04:38:46.162Z,0.00
2018-12-25T04:39:46.288Z,0.00
2018-12-25T04:40:46.412Z,0.00
2018-12-25T04:41:46.543Z,0.00
2018-12-25T04:42:46.671Z,0.00
2018-12-25T04:43:46.801Z,0.00
2018-12-25T04:44:46.930Z,0.00
2018-12-25T04:45:47.052Z,0.00
2018-12-25T04:46:47.184Z,0.00
2018-12-25T04:47:47.310Z,0.00
2018-12-25T04:48:47.437Z,0.00
2018-12-25T04:49:47.556Z,0.00
2018-12-25T04:50:47.683Z,0.00
2018-12-25T04:51:47.846Z,0.00
2018-12-25T04:52:47.939Z,0.00
2018-12-25T04:53:48.066Z,0.00
2018-12-25T04:54:48.196Z,0.00
2018-12-25T04:55:48.319Z,0.00
2018-12-25T04:56:48.450Z,0.00
2018-12-25T04:57:48.576Z,0.00
2018-12-25T04:58:48.758Z,0.00
2018-12-25T04:59:48.834Z,0.00
2018-12-25T05:00:48.961Z,0.00
2018-12-25T05:01:49.084Z,0.00
2018-12-25T05:02:49.218Z,0.00
2018-12-25T05:03:49.344Z,0.00
2018-12-25T05:04:49.472Z,0.00
2018-12-25T05:05:49.601Z,0.00
2018-12-25T05:06:49.723Z,0.00
2018-12-25T05:07:49.849Z,0.00
2018-12-25T05:08:49.966Z,0.00
2018-12-25T05:09:50.093Z,0.00
2018-12-25T05:10:50.216Z,0.00
2018-12-25T05:11:50.351Z,0.00
2018-12-25T05:12:50.469Z,0.00
2018-12-25T05:13:50.601Z,0.00
2018-12-25T05:14:50.732Z,0.00
2018-12-25T05:15:50.887Z,0.00
2018-12-25T05:16:51.011Z,0.00
2018-12-25T05:17:51.139Z,0.00
2018-12-25T05:18:51.263Z,0.00
2018-12-25T05:19:51.411Z,0.00
2018-12-25T05:20:51.533Z,0.00
2018-12-25T05:21:51.662Z,0.00
2018-12-25T05:22:51.790Z,0.00
2018-12-25T05:23:51.918Z,0.00
2018-12-25T05:24:52.114Z,0.00
2018-12-25T05:25:52.227Z,0.00
2018-12-25T05:26:52.357Z,0.00
2018-12-25T05:27:52.485Z,0.00
2018-12-25T05:28:52.638Z,0.00
2018-12-25T05:29:52.760Z,0.00
2018-12-25T05:30:52.896Z,0.00
2018-12-25T05:31:53.018Z,0.00
2018-12-25T05:32:53.145Z,0.00
2018-12-25T05:33:53.298Z,0.00
2018-12-25T05:34:53.424Z,0.00
2018-12-25T05:35:53.558Z,0.00
2018-12-25T05:36:53.679Z,0.00
2018-12-25T05:37:53.841Z,0.00
2018-12-25T05:38:53.965Z,0.00
2018-12-25T05:39:54.090Z,0.00
2018-12-25T05:40:54.213Z,0.00
2018-12-25T05:41:54.350Z,0.00
2018-12-25T05:42:54.475Z,0.00
2018-12-25T05:43:54.602Z,0.00
2018-12-25T05:44:54.739Z,0.00
2018-12-25T05:45:54.930Z,0.00
2018-12-25T05:46:54.928Z,0.00
2018-12-25T05:47:55.054Z,0.00
2018-12-25T05:48:55.180Z,0.00
2018-12-25T05:49:55.336Z,0.00
2018-12-25T05:50:55.457Z,0.00
2018-12-25T05:51:55.585Z,0.00
2018-12-25T05:52:55.770Z,0.00
2018-12-25T05:53:55.882Z,0.00
2018-12-25T05:54:56.011Z,0.00
2018-12-25T05:55:56.138Z,0.00
2018-12-25T05:56:56.263Z,0.00
2018-12-25T05:57:56.385Z,0.00
2018-12-25T05:58:56.525Z,0.00
2018-12-25T05:59:56.650Z,0.00
2018-12-25T06:00:56.778Z,0.00
2018-12-25T06:01:56.937Z,0.00
2018-12-25T06:02:57.058Z,0.00
2018-12-25T06:03:57.190Z,0.00
2018-12-25T06:04:57.317Z,0.00
2018-12-25T06:05:57.446Z,0.00
2018-12-25T06:06:57.572Z,0.00
2018-12-25T06:07:57.695Z,0.00
2018-12-25T06:08:57.816Z,0.00
2018-12-25T06:09:57.941Z,0.00
2018-12-25T06:10:58.067Z,0.00
2018-12-25T06:11:58.195Z,0.00
2018-12-25T06:12:58.325Z,0.00
2018-12-25T06:13:58.454Z,0.00
2018-12-25T06:14:58.580Z,0.00
2018-12-25T06:15:58.708Z,0.00
2018-12-25T06:16:58.833Z,0.00
2018-12-25T06:17:58.970Z,0.00
2018-12-25T06:18:59.095Z,0.00
2018-12-25T06:19:59.219Z,0.00
2018-12-25T06:20:59.347Z,0.00
2018-12-25T06:21:59.486Z,0.00
2018-12-25T06:22:59.612Z,0.00
2018-12-25T06:23:59.755Z,0.00
2018-12-25T06:24:59.877Z,0.00
2018-12-25T06:26:00.001Z,0.00
2018-12-25T06:27:00.131Z,0.00
2018-12-25T06:28:00.283Z,0.00
2018-12-25T06:29:00.402Z,0.00
2018-12-25T06:30:00.536Z,0.00
2018-12-25T06:31:00.667Z,0.00
2018-12-25T06:32:00.802Z,0.00
2018-12-25T06:33:00.924Z,0.00
2018-12-25T06:34:01.051Z,0.00
2018-12-25T06:35:01.180Z,0.00
2018-12-25T06:36:01.330Z,0.00
2018-12-25T06:37:01.452Z,0.00
2018-12-25T06:38:01.579Z,0.00
2018-12-25T06:39:01.714Z,0.00
2018-12-25T06:40:01.835Z,0.00
2018-12-25T06:41:01.960Z,0.00
2018-12-25T06:42:02.091Z,0.00
2018-12-25T06:43:02.232Z,0.00
2018-12-25T06:44:02.354Z,0.00
2018-12-25T06:45:02.482Z,0.00
2018-12-25T06:46:02.612Z,0.00
2018-12-25T06:47:02.746Z,0.00
2018-12-25T06:48:02.871Z,0.00
2018-12-25T06:49:02.997Z,0.00
2018-12-25T06:50:03.123Z,0.00
2018-12-25T06:51:03.929Z,0.00
2018-12-25T06:52:03.399Z,0.00
2018-12-25T06:53:03.522Z,0.00
2018-12-25T06:54:03.706Z,0.00
2018-12-25T06:55:03.801Z,0.00
2018-12-25T06:56:03.927Z,0.00
2018-12-25T06:57:04.054Z,0.00
2018-12-25T06:58:04.209Z,0.00
2018-12-25T06:59:04.367Z,0.00
2018-12-25T07:00:04.491Z,0.00
2018-12-25T07:01:04.613Z,0.00
2018-12-25T07:02:05.243Z,0.00
2018-12-25T07:03:04.916Z,0.00
2018-12-25T07:04:05.041Z,0.00
2018-12-25T07:05:05.171Z,0.00
2018-12-25T07:06:05.292Z,0.00
2018-12-25T07:07:05.422Z,0.00
2018-12-25T07:08:05.550Z,0.00
2018-12-25T07:09:05.682Z,0.00
2018-12-25T07:10:05.807Z,0.00
2018-12-25T07:11:05.939Z,0.00
2018-12-25T07:12:06.073Z,0.00
2018-12-25T07:13:06.196Z,0.00
2018-12-25T07:14:06.317Z,0.00
2018-12-25T07:15:06.444Z,0.00
2018-12-25T07:16:06.604Z,0.00
2018-12-25T07:17:06.732Z,0.00
2018-12-25T07:18:06.854Z,0.00
2018-12-25T07:19:06.986Z,0.00
2018-12-25T07:20:07.138Z,0.00
2018-12-25T07:21:12.135Z,0.00
2018-12-25T07:22:07.386Z,0.00
2018-12-25T07:23:07.510Z,0.00
2018-12-25T07:24:07.667Z,0.00
2018-12-25T07:25:07.791Z,0.00
2018-12-25T07:26:07.917Z,0.00
2018-12-25T07:27:08.043Z,0.00
2018-12-25T07:28:08.192Z,0.00
2018-12-25T07:29:08.315Z,0.00
2018-12-25T07:30:08.443Z,0.00
2018-12-25T07:31:08.566Z,0.00
2018-12-25T07:32:08.693Z,0.00
2018-12-25T07:33:08.815Z,0.00
2018-12-25T07:34:08.945Z,0.00
2018-12-25T07:35:09.074Z,0.00
2018-12-25T07:36:09.533Z,0.00
2018-12-25T07:37:09.343Z,0.00
2018-12-25T07:38:09.468Z,0.00
2018-12-25T07:39:09.614Z,0.00
2018-12-25T07:40:09.743Z,0.00
2018-12-25T07:41:09.861Z,0.00
2018-12-25T07:42:09.987Z,0.00
2018-12-25T07:43:10.124Z,0.00
2018-12-25T07:44:10.254Z,0.00
2018-12-25T07:45:10.380Z,0.00
2018-12-25T07:46:10.507Z,0.00
2018-12-25T07:47:11.339Z,0.00
2018-12-25T07:48:10.800Z,5.63
2018-12-25T07:49:10.927Z,5.63
2018-12-25T07:50:11.051Z,5.63
2018-12-25T07:51:11.207Z,5.63
2018-12-25T07:52:11.307Z,5.63
2018-12-25T07:53:11.433Z,5.63
2018-12-25T07:54:11.554Z,5.63
2018-12-25T07:55:11.709Z,5.63
2018-12-25T07:56:11.828Z,5.63
2018-12-25T07:57:11.955Z,5.63
2018-12-25T07:58:12.089Z,5.63
2018-12-25T07:59:12.227Z,5.63
2018-12-25T08:00:12.353Z,5.63
2018-12-25T08:01:12.499Z,5.63
2018-12-25T08:02:12.748Z,5.63
2018-12-25T08:03:12.753Z,5.63
2018-12-25T08:04:12.886Z,5.63
2018-12-25T08:05:13.041Z,5.63
2018-12-25T08:06:13.161Z,5.63
2018-12-25T08:07:13.290Z,5.63
2018-12-25T08:08:13.441Z,5.63
2018-12-25T08:09:13.564Z,5.63
2018-12-25T08:10:13.692Z,5.63
2018-12-25T08:11:13.841Z,5.63
2018-12-25T08:12:13.963Z,5.63
2018-12-25T08:13:14.094Z,5.63
2018-12-25T08:14:14.221Z,5.63
2018-12-25T08:15:14.381Z,11.25
2018-12-25T08:16:14.507Z,11.25
2018-12-25T08:17:14.627Z,5.63
2018-12-25T08:18:14.760Z,5.63
2018-12-25T08:19:14.962Z,5.63
2018-12-25T08:20:15.020Z,5.63
2018-12-25T08:21:15.153Z,5.63
2018-12-25T08:22:15.320Z,11.25
2018-12-25T08:23:15.450Z,11.25
2018-12-25T08:24:15.610Z,11.25
2018-12-25T08:25:15.729Z,11.25
2018-12-25T08:26:15.855Z,5.63
2018-12-25T08:27:15.983Z,5.63
2018-12-25T08:28:16.153Z,5.63
2018-12-25T08:29:16.267Z,5.63
2018-12-25T08:30:16.394Z,5.63
2018-12-25T08:31:16.527Z,5.63
2018-12-25T08:32:16.689Z,5.63
2018-12-25T08:33:16.820Z,5.63
2018-12-25T08:34:16.941Z,5.63
2018-12-25T08:35:17.089Z,5.63
2018-12-25T08:36:17.238Z,5.63
2018-12-25T08:37:17.371Z,5.63
2018-12-25T08:38:17.538Z,11.25
2018-12-25T08:39:17.655Z,11.25
2018-12-25T08:40:17.782Z,11.25
2018-12-25T08:41:17.908Z,11.25
2018-12-25T08:42:18.052Z,11.25
2018-12-25T08:43:18.176Z,11.25
2018-12-25T08:44:18.312Z,11.25
2018-12-25T08:45:18.437Z,11.25
2018-12-25T08:46:18.570Z,11.25
2018-12-25T08:47:18.699Z,11.25
2018-12-25T08:48:18.860Z,11.25
2018-12-25T08:49:18.980Z,11.25
2018-12-25T08:50:19.117Z,11.25
2018-12-25T08:51:19.244Z,11.25
2018-12-25T08:52:19.388Z,11.25
2018-12-25T08:53:19.513Z,16.88
2018-12-25T08:54:19.640Z,16.88
2018-12-25T08:55:19.765Z,16.88
2018-12-25T08:56:19.912Z,11.25
2018-12-25T08:57:20.034Z,11.25
2018-12-25T08:58:20.164Z,11.25
2018-12-25T08:59:20.288Z,11.25
2018-12-25T09:00:20.425Z,11.25
2018-12-25T09:01:20.553Z,11.25
2018-12-25T09:02:20.680Z,16.88
2018-12-25T09:03:20.817Z,16.88
2018-12-25T09:04:20.943Z,16.88
2018-12-25T09:05:21.068Z,16.88
2018-12-25T09:06:21.205Z,16.88
2018-12-25T09:07:21.333Z,16.88
2018-12-25T09:08:21.456Z,16.88
2018-12-25T09:09:21.593Z,22.50
2018-12-25T09:10:21.719Z,22.50
2018-12-25T09:11:21.847Z,28.13
2018-12-25T09:12:21.979Z,33.75
2018-12-25T09:13:22.175Z,33.75
2018-12-25T09:14:22.239Z,33.75
2018-12-25T09:15:22.365Z,33.75
2018-12-25T09:16:22.501Z,39.38
2018-12-25T09:17:22.638Z,45.00
2018-12-25T09:18:22.768Z,45.00
2018-12-25T09:19:22.890Z,56.25
2018-12-25T09:20:23.091Z,61.88
2018-12-25T09:21:23.143Z,56.25
2018-12-25T09:22:23.276Z,56.25
2018-12-25T09:23:23.396Z,50.63
2018-12-25T09:24:23.519Z,56.25
2018-12-25T09:25:23.654Z,61.88
2018-12-25T09:26:23.784Z,61.88
2018-12-25T09:27:23.918Z,67.50
2018-12-25T09:28:24.044Z,73.13
2018-12-25T09:29:24.169Z,73.13
2018-12-25T09:30:24.298Z,73.13
2018-12-25T09:31:24.434Z,73.13
2018-12-25T09:32:24.549Z,67.50
2018-12-25T09:33:24.771Z,73.13
2018-12-25T09:34:24.808Z,73.13
2018-12-25T09:35:24.940Z,78.75
2018-12-25T09:36:25.067Z,84.38
2018-12-25T09:37:25.200Z,90.00
2018-12-25T09:38:25.337Z,78.75
2018-12-25T09:39:25.470Z,78.75
2018-12-25T09:40:25.606Z,73.13
2018-12-25T09:41:25.738Z,67.50
2018-12-25T09:42:25.868Z,67.50
2018-12-25T09:43:25.992Z,56.25
2018-12-25T09:44:26.117Z,56.25
2018-12-25T09:45:26.251Z,56.25
2018-12-25T09:46:26.387Z,61.88
2018-12-25T09:47:26.621Z,61.88
2018-12-25T09:48:26.662Z,61.88
2018-12-25T09:49:26.789Z,61.88
2018-12-25T09:50:26.916Z,56.25
2018-12-25T09:51:27.043Z,50.63
2018-12-25T09:52:27.173Z,50.63
2018-12-25T09:53:27.303Z,50.63
2018-12-25T09:54:27.428Z,50.63
2018-12-25T09:55:27.555Z,56.25
2018-12-25T09:56:27.683Z,56.25
2018-12-25T09:57:27.808Z,50.63
2018-12-25T09:58:27.941Z,50.63
2018-12-25T09:59:28.072Z,45.00
2018-12-25T10:00:28.201Z,45.00
2018-12-25T10:01:28.324Z,45.00
2018-12-25T10:02:28.460Z,45.00
2018-12-25T10:03:28.580Z,56.25
2018-12-25T10:04:28.705Z,61.88
2018-12-25T10:05:28.837Z,73.13
2018-12-25T10:06:28.959Z,73.13
2018-12-25T10:07:29.085Z,78.75
2018-12-25T10:08:29.223Z,84.38
2018-12-25T10:09:29.349Z,90.00
2018-12-25T10:10:29.472Z,95.63
2018-12-25T10:11:29.666Z,95.63
2018-12-25T10:12:29.743Z,101.25
2018-12-25T10:13:29.853Z,112.50
2018-12-25T10:14:29.983Z,151.88
2018-12-25T10:15:30.108Z,180.00
2018-12-25T10:16:30.234Z,196.88
2018-12-25T10:17:30.362Z,219.38
2018-12-25T10:18:30.500Z,219.38
2018-12-25T10:19:30.628Z,202.50
2018-12-25T10:20:30.770Z,213.75
2018-12-25T10:21:30.900Z,213.75
2018-12-25T10:22:31.045Z,213.75
2018-12-25T10:23:31.364Z,202.50
2018-12-25T10:24:31.244Z,219.38
2018-12-25T10:25:31.369Z,213.75
2018-12-25T10:26:31.499Z,202.50
2018-12-25T10:27:31.631Z,191.25
2018-12-25T10:28:31.767Z,185.63
2018-12-25T10:29:31.901Z,185.63
2018-12-25T10:30:32.029Z,163.13
2018-12-25T10:31:32.151Z,140.63
2018-12-25T10:32:32.302Z,118.13
2018-12-25T10:33:32.453Z,101.25
2018-12-25T10:34:32.580Z,90.00
2018-12-25T10:35:32.712Z,90.00
2018-12-25T10:36:32.835Z,78.75
2018-12-25T10:37:32.994Z,67.50
2018-12-25T10:38:33.117Z,67.50
2018-12-25T10:39:33.257Z,67.50
2018-12-25T10:40:33.389Z,73.13
2018-12-25T10:41:33.514Z,95.63
2018-12-25T10:42:33.646Z,112.50
2018-12-25T10:43:34.881Z,123.75
2018-12-25T10:44:33.925Z,129.38
2018-12-25T10:45:34.053Z,129.38
2018-12-25T10:46:34.193Z,112.50
2018-12-25T10:47:34.418Z,101.25
2018-12-25T10:48:34.458Z,95.63
2018-12-25T10:49:34.593Z,84.38
2018-12-25T10:50:34.717Z,78.75
2018-12-25T10:51:34.847Z,78.75
2018-12-25T10:52:34.978Z,90.00
2018-12-25T10:53:35.103Z,84.38
2018-12-25T10:54:35.235Z,78.75
2018-12-25T10:55:35.505Z,67.50
2018-12-25T10:56:35.494Z,61.88
2018-12-25T10:57:35.627Z,67.50
2018-12-25T10:58:35.756Z,67.50
2018-12-25T10:59:35.883Z,78.75
2018-12-25T11:00:36.016Z,101.25
2018-12-25T11:01:36.142Z,95.63
2018-12-25T11:02:36.275Z,73.13
2018-12-25T11:03:36.402Z,73.13
2018-12-25T11:04:36.532Z,56.25
2018-12-25T11:05:36.669Z,45.00
2018-12-25T11:06:36.792Z,45.00
2018-12-25T11:07:36.923Z,45.00
2018-12-25T11:08:37.051Z,50.63
2018-12-25T11:09:37.179Z,39.38
2018-12-25T11:10:37.307Z,39.38
2018-12-25T11:11:37.441Z,33.75
2018-12-25T11:12:37.573Z,33.75
2018-12-25T11:13:37.698Z,39.38
2018-12-25T11:14:37.831Z,39.38
2018-12-25T11:15:37.954Z,33.75
2018-12-25T11:16:38.088Z,33.75
2018-12-25T11:17:38.219Z,33.75
2018-12-25T11:18:38.357Z,33.75
2018-12-25T11:19:38.483Z,33.75
2018-12-25T11:20:38.617Z,33.75
2018-12-25T11:21:38.745Z,33.75
2018-12-25T11:22:38.903Z,39.38
2018-12-25T11:23:39.056Z,45.00
2018-12-25T11:24:39.178Z,45.00
2018-12-25T11:25:39.320Z,39.38
2018-12-25T11:26:39.458Z,39.38
2018-12-25T11:27:39.587Z,33.75
2018-12-25T11:28:40.052Z,39.38
2018-12-25T11:29:39.854Z,33.75
2018-12-25T11:30:39.982Z,39.38
2018-12-25T11:31:40.112Z,39.38
2018-12-25T11:32:40.240Z,33.75
2018-12-25T11:33:40.370Z,28.13
2018-12-25T11:34:40.500Z,28.13
2018-12-25T11:35:40.627Z,28.13
2018-12-25T11:36:40.763Z,28.13
2018-12-25T11:37:40.912Z,28.13
2018-12-25T11:38:41.037Z,28.13
2018-12-25T11:39:41.165Z,33.75
2018-12-25T11:40:41.289Z,28.13
2018-12-25T11:41:41.425Z,28.13
2018-12-25T11:42:41.551Z,28.13
2018-12-25T11:43:41.677Z,28.13
2018-12-25T11:44:41.806Z,28.13
2018-12-25T11:45:41.942Z,28.13
2018-12-25T11:46:42.068Z,33.75
2018-12-25T11:47:42.194Z,33.75
2018-12-25T11:48:42.317Z,33.75
2018-12-25T11:49:42.449Z,33.75
2018-12-25T11:50:42.576Z,39.38
2018-12-25T11:51:42.707Z,39.38
2018-12-25T11:52:42.838Z,33.75
2018-12-25T11:53:42.963Z,33.75
2018-12-25T11:54:43.097Z,33.75
2018-12-25T11:55:43.218Z,33.75
2018-12-25T11:56:43.348Z,33.75
2018-12-25T11:57:43.478Z,33.75
2018-12-25T11:58:43.609Z,28.13
2018-12-25T11:59:43.749Z,28.13
2018-12-25T12:00:43.879Z,28.13
2018-12-25T12:01:44.007Z,28.13
2018-12-25T12:02:44.133Z,28.13
2018-12-25T12:03:44.265Z,28.13
2018-12-25T12:04:44.394Z,28.13
2018-12-25T12:05:45.224Z,28.13
2018-12-25T12:08:16.705Z,33.75
2018-12-25T12:09:16.830Z,33.75
2018-12-25T12:10:16.958Z,33.75
2018-12-25T12:11:17.085Z,33.75
2018-12-25T12:12:17.219Z,33.75
2018-12-25T12:13:17.353Z,33.75
2018-12-25T12:14:17.476Z,33.75
2018-12-25T12:15:17.605Z,33.75
2018-12-25T12:16:17.739Z,28.13
2018-12-25T12:17:17.860Z,28.13
2018-12-25T12:18:17.993Z,33.75
2018-12-25T12:19:18.117Z,39.38
2018-12-25T12:20:18.239Z,39.38
2018-12-25T12:21:18.767Z,45.00
2018-12-25T12:22:18.506Z,39.38
2018-12-25T12:23:18.625Z,39.38
2018-12-25T12:24:18.750Z,33.75
2018-12-25T12:25:19.670Z,33.75
2018-12-25T12:26:19.066Z,33.75
2018-12-25T12:27:19.203Z,33.75
2018-12-25T12:28:19.341Z,39.38
2018-12-25T12:29:19.496Z,39.38
2018-12-25T12:30:19.625Z,33.75
2018-12-25T12:31:19.750Z,33.75
2018-12-25T12:32:19.891Z,33.75
2018-12-25T12:33:20.016Z,33.75
2018-12-25T12:34:20.143Z,33.75
2018-12-25T12:35:20.271Z,33.75
2018-12-25T12:36:20.430Z,33.75
2018-12-25T12:37:20.551Z,33.75
2018-12-25T12:38:20.674Z,33.75
2018-12-25T12:39:20.825Z,33.75
2018-12-25T12:40:20.960Z,33.75
2018-12-25T12:41:21.093Z,33.75
2018-12-25T12:42:21.221Z,33.75
2018-12-25T12:43:21.357Z,33.75
2018-12-25T12:44:21.478Z,33.75
2018-12-25T12:45:21.609Z,33.75
2018-12-25T12:46:21.741Z,33.75
2018-12-25T12:47:21.889Z,33.75
2018-12-25T12:48:22.012Z,33.75
2018-12-25T12:49:22.137Z,33.75
2018-12-25T12:50:22.302Z,33.75
2018-12-25T12:51:22.412Z,28.13
2018-12-25T12:52:22.536Z,28.13
2018-12-25T12:53:22.665Z,28.13
2018-12-25T12:54:22.811Z,33.75
2018-12-25T12:55:22.931Z,28.13
2018-12-25T12:56:23.066Z,28.13
2018-12-25T12:57:23.306Z,28.13
2018-12-25T12:58:23.347Z,28.13
2018-12-25T12:59:23.471Z,28.13
2018-12-25T13:00:23.607Z,28.13
2018-12-25T13:01:23.777Z,28.13
2018-12-25T13:02:23.894Z,28.13
2018-12-25T13:03:24.023Z,22.50
2018-12-25T13:04:24.143Z,28.13
2018-12-25T13:05:24.295Z,28.13
2018-12-25T13:06:24.420Z,28.13
2018-12-25T13:07:24.556Z,28.13
2018-12-25T13:08:24.700Z,28.13
2018-12-25T13:09:24.827Z,22.50
2018-12-25T13:10:24.954Z,22.50
2018-12-25T13:11:25.085Z,22.50